Airfield :
LOGIN :

Register | Disclaimer

   EN    FR    IT 

 










Legend :    VFR   Marginal VFR   IFR   Intensive IFR   Very Intensive IFR
Visi :
Ceiling :
>= 8 km
>= 3000ft
5 to 8 km
1000 to 3000 ft
1500m to 5 km
500 to 1000 ft
800 to 1500m
200 to 500 ft
< 800m
< 200 ft
Symbols :   Thunderstorms  Fog  Heavy snow  Heavy precipitations  Wind > 20 kt
SIGMETs :     Misc.  Thunderstorms  Icing  Turbulence  Mountain Waves  Volcanic Ashes






- Airport Elevation : 1079 ft


ETIK - Illesheim Air Base

CURRENT METAR :
  • 181156Z AUTO 08005KT 9999 CLR 25/12 A3024 RMK AO2 SLP234 T02490121 10250 20168 58008 $

EXPIRED METARs :
  • 181056Z 06007KT 9999 FEW050 FEW200 25/12 A3026 RMK AO2A SLP241 T02450121 $
  • 180956Z 11005KT 9999 FEW100 SCT190 24/11 A3026 RMK AO2A SLP241 T02360113 $

TAF TAF ETIK
Valid from the 18 at 06:00 until the 19 at 12:00 UTC


180600Z 1806/1912 15006KT 9999 SCT050 SCT110 QNH3020INS
BECMG 1818/1819 13006KT 9999 SKC QNH3019INS TX25/1814Z TN11/1903Z



MET'MAP, your aeronautical weather chart ! - Copyright ORBIFLY December 2007 - Disclaimer

ORBIFLY MET'MAP TEAM :

Programming & Development : Alexandra Zaïnal
Original concept : Baudouin d'Aumeries
Technical & hardware support : Manuel Goepfert
Assistance : Marc-Olivier Méhu

Contact : metmap@orbifly.com




SOURCES & CREDITS :

   NOAA